Sanko Independence — A8QJ9 — position and weather

sailwx.info

Track history (hours):
 
Tides and Currents Weather Stations Pressure Air Temp Water Temp Dewpoint Dewpoint Depression Visibility Wind Speed Wind Dir Waves Ship Positions

Sanko Independence

Last reported at 2016-Apr-14 14:24 UTC. Time now 2016-May-03 18:16 UTC.
Position N 10°51' W 061°30'.
Warning: this ship's position is 19 days out of date.

Length 174 m; draft 10.1 m.

Type: Ship (hazmat cat C). MMSI: 636013946.

Date/timePositionNaut miles runAvg speedWind from/ knotsBaromVisibWave heightAir tempDewpointWater temp
2016-Apr-14 14:24N 10°51' W 061°30'1416.2
2016-Apr-14 13:33N 10°45' W 061°43'1312.7
2016-Apr-14 12:33N 10°33' W 061°42'1414.0
2016-Apr-14 11:34N 10°23' W 061°32'3 3.0
2016-Apr-14 10:31N 10°24' W 061°30'0 0.0
2016-Apr-14 09:31N 10°24' W 061°30'0 0.0
2016-Apr-14 08:31N 10°24' W 061°30'0 0.0
2016-Apr-14 07:31N 10°24' W 061°30'0 0.0
2016-Apr-14 06:31N 10°24' W 061°30'0 0.0
2016-Apr-14 05:31N 10°24' W 061°30'0 0.0
2016-Apr-14 04:31N 10°24' W 061°30'0 0.0
2016-Apr-14 03:31N 10°24' W 061°30'0 0.0
2016-Apr-14 02:31N 10°24' W 061°30'0 0.0
2016-Apr-14 01:31N 10°24' W 061°30'0 0.0
2016-Apr-14 00:25N 10°24' W 061°30'0 0.0
2016-Apr-13 23:31N 10°24' W 061°30'0 0.0
2016-Apr-13 22:28N 10°24' W 061°30'0 0.0
2016-Apr-13 21:25N 10°24' W 061°30'0 0.0
2016-Apr-13 20:28N 10°24' W 061°30'0 0.0
2016-Apr-13 19:31N 10°24' W 061°30'0 0.0
2016-Apr-13 18:25N 10°24' W 061°30'0 0.0
2016-Apr-13 17:31N 10°24' W 061°30'0 0.0
2016-Apr-13 16:31N 10°24' W 061°30'0 0.0
2016-Apr-13 15:31N 10°24' W 061°30'0 0.0
2016-Apr-13 14:31N 10°24' W 061°30'0 0.0
2016-Apr-13 13:28N 10°24' W 061°30'0 0.0
2016-Apr-13 12:31N 10°24' W 061°30'0 0.0
2016-Apr-13 11:31N 10°24' W 061°30'0 0.0
2016-Apr-13 10:31N 10°24' W 061°30'0 0.0
2016-Apr-13 09:31N 10°24' W 061°30'0 0.0
2016-Apr-13 08:31N 10°24' W 061°30'0 0.0
2016-Apr-13 07:31N 10°24' W 061°30'0 0.0
2016-Apr-13 06:31N 10°24' W 061°30'0 0.0
2016-Apr-13 05:31N 10°24' W 061°30'0 0.0
2016-Apr-13 04:31N 10°24' W 061°30'0 0.0
2016-Apr-13 03:31N 10°24' W 061°30'3 3.1
2016-Apr-13 02:33N 10°23' W 061°32'2 1.9
2016-Apr-13 01:33N 10°23' W 061°34'2 1.9
2016-Apr-13 00:34N 10°24' W 061°36'1 1.0
2016-Apr-12 23:34N 10°25' W 061°35'9 9.1
2016-Apr-12 22:33N 10°32' W 061°41'4 4.3
2016-Apr-12 21:33N 10°35' W 061°44'1111.1
2016-Apr-12 20:33N 10°45' W 061°49'1211.5
2016-Apr-12 19:32N 10°48' W 062°01'19 1.1
2016-Apr-12 01:32N 10°59' W 062°16'4 2.1
2016-Apr-11 23:22N 11°01' W 062°12'8 6.9
2016-Apr-11 22:11N 11°02' W 062°20'  
Track history (hours):
 
Tides and Currents Weather Stations Pressure Air Temp Water Temp Dewpoint Dewpoint Depression Visibility Wind Speed Wind Dir Waves Ship Positions

Sanko Independence

Last reported at 2016-Apr-14 14:24 UTC. Time now 2016-May-03 18:16 UTC.
Position N 10°51' W 061°30'.
Warning: this ship's position is 19 days out of date.

Length 174 m; draft 10.1 m.

Type: Ship (hazmat cat C). MMSI: 636013946.

Date/timePositionNaut miles runAvg speedWind from/ knotsBaromVisibWave heightAir tempDewpointWater temp
2016-Apr-14 14:24N 10°51' W 061°30'1416.2
2016-Apr-14 13:33N 10°45' W 061°43'1312.7
2016-Apr-14 12:33N 10°33' W 061°42'1414.0
2016-Apr-14 11:34N 10°23' W 061°32'3 3.0
2016-Apr-14 10:31N 10°24' W 061°30'0 0.0
2016-Apr-14 09:31N 10°24' W 061°30'0 0.0
2016-Apr-14 08:31N 10°24' W 061°30'0 0.0
2016-Apr-14 07:31N 10°24' W 061°30'0 0.0
2016-Apr-14 06:31N 10°24' W 061°30'0 0.0
2016-Apr-14 05:31N 10°24' W 061°30'0 0.0
2016-Apr-14 04:31N 10°24' W 061°30'0 0.0
2016-Apr-14 03:31N 10°24' W 061°30'0 0.0
2016-Apr-14 02:31N 10°24' W 061°30'0 0.0
2016-Apr-14 01:31N 10°24' W 061°30'0 0.0
2016-Apr-14 00:25N 10°24' W 061°30'0 0.0
2016-Apr-13 23:31N 10°24' W 061°30'0 0.0
2016-Apr-13 22:28N 10°24' W 061°30'0 0.0
2016-Apr-13 21:25N 10°24' W 061°30'0 0.0
2016-Apr-13 20:28N 10°24' W 061°30'0 0.0
2016-Apr-13 19:31N 10°24' W 061°30'0 0.0
2016-Apr-13 18:25N 10°24' W 061°30'0 0.0
2016-Apr-13 17:31N 10°24' W 061°30'0 0.0
2016-Apr-13 16:31N 10°24' W 061°30'0 0.0
2016-Apr-13 15:31N 10°24' W 061°30'0 0.0
2016-Apr-13 14:31N 10°24' W 061°30'0 0.0
2016-Apr-13 13:28N 10°24' W 061°30'0 0.0
2016-Apr-13 12:31N 10°24' W 061°30'0 0.0
2016-Apr-13 11:31N 10°24' W 061°30'0 0.0
2016-Apr-13 10:31N 10°24' W 061°30'0 0.0
2016-Apr-13 09:31N 10°24' W 061°30'0 0.0
2016-Apr-13 08:31N 10°24' W 061°30'0 0.0
2016-Apr-13 07:31N 10°24' W 061°30'0 0.0
2016-Apr-13 06:31N 10°24' W 061°30'0 0.0
2016-Apr-13 05:31N 10°24' W 061°30'0 0.0
2016-Apr-13 04:31N 10°24' W 061°30'0 0.0
2016-Apr-13 03:31N 10°24' W 061°30'3 3.1
2016-Apr-13 02:33N 10°23' W 061°32'2 1.9
2016-Apr-13 01:33N 10°23' W 061°34'2 1.9
2016-Apr-13 00:34N 10°24' W 061°36'1 1.0
2016-Apr-12 23:34N 10°25' W 061°35'9 9.1
2016-Apr-12 22:33N 10°32' W 061°41'4 4.3
2016-Apr-12 21:33N 10°35' W 061°44'1111.1
2016-Apr-12 20:33N 10°45' W 061°49'1211.5
2016-Apr-12 19:32N 10°48' W 062°01'19 1.1
2016-Apr-12 01:32N 10°59' W 062°16'4 2.1
2016-Apr-11 23:22N 11°01' W 062°12'8 6.9
2016-Apr-11 22:11N 11°02' W 062°20'  

Dump ship's entire track history